createdAt,value
2019-05-10T05:11:29.914Z,11.50
2019-05-10T05:21:29.464Z,13.25
2019-05-10T05:31:29.423Z,14.13
2019-05-10T05:41:31.912Z,14.63
2019-05-10T05:51:29.682Z,14.87
2019-05-10T06:01:29.774Z,15.50
2019-05-10T06:11:29.728Z,15.25
2019-05-10T06:21:29.756Z,15.38
2019-05-10T06:31:29.416Z,16.62
2019-05-10T06:41:32.442Z,16.62
2019-05-10T06:51:29.668Z,15.75
2019-05-10T07:01:29.218Z,15.75
2019-05-10T07:11:29.792Z,15.88
2019-05-10T07:21:29.688Z,15.88
2019-05-10T07:31:30.569Z,16.25
2019-05-10T07:41:29.598Z,16.25
2019-05-10T07:51:30.362Z,15.75
2019-05-10T08:01:32.363Z,15.13
2019-05-10T08:11:29.639Z,14.63
2019-05-10T08:21:32.041Z,14.13
2019-05-10T08:31:31.876Z,13.62
2019-05-10T08:41:29.400Z,13.88
2019-05-10T08:51:29.676Z,14.00
2019-05-10T09:01:31.357Z,13.88
2019-05-10T09:11:29.678Z,13.50
2019-05-10T09:21:32.031Z,13.88
2019-05-10T09:31:29.638Z,13.88
2019-05-10T09:41:35.995Z,13.88
2019-05-10T09:51:30.975Z,14.25
2019-05-10T10:01:30.471Z,13.75
2019-05-10T10:11:29.733Z,13.75
2019-05-10T10:21:35.157Z,15.00
2019-05-10T10:31:33.050Z,15.00
2019-05-10T10:41:31.926Z,14.87
2019-05-10T10:51:31.974Z,15.50
2019-05-10T11:01:45.663Z,16.25
2019-05-10T11:11:38.462Z,18.00
2019-05-10T11:21:32.899Z,18.62
2019-05-10T11:31:31.227Z,18.62
2019-05-10T11:41:31.460Z,18.87
2019-05-10T11:51:31.528Z,18.75
2019-05-10T12:01:29.677Z,18.00
2019-05-10T12:11:33.806Z,18.12
2019-05-10T12:21:33.125Z,18.00
2019-05-10T12:31:31.117Z,18.50
2019-05-10T12:41:31.594Z,19.75
2019-05-10T12:51:31.251Z,21.62
2019-05-10T13:01:31.740Z,21.62
2019-05-10T13:11:32.569Z,21.62
2019-05-10T13:21:30.611Z,20.00
2019-05-10T13:31:29.586Z,19.75
2019-05-10T13:41:29.755Z,19.75
2019-05-10T13:51:29.404Z,19.87
2019-05-10T14:01:29.672Z,21.37
2019-05-10T14:11:34.108Z,21.50
2019-05-10T14:21:29.711Z,22.75
2019-05-10T14:31:30.620Z,22.75
2019-05-10T14:41:29.860Z,21.50
2019-05-10T14:51:44.086Z,23.62
2019-05-10T15:01:30.225Z,21.50
2019-05-10T15:11:33.218Z,23.25
2019-05-10T15:21:29.844Z,24.37
2019-05-10T15:31:30.847Z,22.13
2019-05-10T15:41:29.676Z,24.63
2019-05-10T15:51:36.095Z,24.00
2019-05-10T16:01:32.324Z,25.25
2019-05-10T16:11:29.923Z,21.75
2019-05-10T16:21:29.871Z,24.25
2019-05-10T16:31:29.930Z,22.75
2019-05-10T16:41:29.907Z,23.38
2019-05-10T16:51:30.312Z,24.37
2019-05-10T17:01:33.381Z,23.50
2019-05-10T17:11:29.797Z,22.62
2019-05-10T17:21:30.155Z,20.50
2019-05-10T17:31:29.958Z,18.12
2019-05-10T17:41:30.023Z,17.25
2019-05-10T17:51:28.746Z,16.62
2019-05-10T18:01:28.814Z,16.25
2019-05-10T18:11:29.723Z,15.88
2019-05-10T18:21:30.394Z,15.75
2019-05-10T18:31:29.837Z,15.50
2019-05-10T18:41:29.820Z,15.25
2019-05-10T18:51:29.683Z,14.87
2019-05-10T19:01:32.830Z,14.25
